Terminal Aerodrome Forecast
Issued by NWS

Home | Current Version | Previous Version | Text Only | Print | Product List | Glossary On
Versions: 1 2 3 4 5 6 7 8 9 10 11 12 13 14 15 16 17 18 19 20 21 22
000
FTUS44 KTSA 212300
TAFXNA
TAF
KXNA 212322Z 2200/2224 00000KT P6SM SKC
     FM220700 00000KT 3SM BR SKC
      TEMPO 2207/2211 1SM BR
     FM221200 00000KT P6SM SKC
     FM221500 15007KT P6SM SKC=

USA.gov is the U.S. government's official web portal to all federal, state and local government web resources and services.